Terminal Aerodrome Forecast
Issued by NWS Jackson, MS

Home | Current Version | Previous Version | Text Only | Print | Product List | Glossary On
Versions: 1 2 3 4 5 6 7 8 9 10 11 12 13
953
FTUS44 KJAN 290550 RRA
TAFGWO
TAF
KGWO 290550Z 2906/3006 07005KT P6SM FEW050 SCT250
     FM291200 11006KT 6SM BR BKN015 OVC030
     FM291600 14012KT P6SM BKN025 BKN050
     FM291800 16013G21KT P6SM VCTS BKN030CB BKN050
     FM292100 30010G20KT 5SM -TSRA BKN030CB BKN050
     FM292300 03006KT P6SM VCTS SCT030 BKN050CB
     FM300400 13010KT P6SM SCT020 BKN040=

USA.gov is the U.S. government's official web portal to all federal, state and local government web resources and services.